createdAt,value
2023-01-21T00:01:57.388Z,9.40
2023-01-21T00:04:23.907Z,9.40
2023-01-21T00:06:50.364Z,9.50
2023-01-21T00:09:16.871Z,9.50
2023-01-21T00:11:43.344Z,9.50
2023-01-21T00:14:09.862Z,9.50
2023-01-21T00:16:36.343Z,9.60
2023-01-21T00:19:02.805Z,9.50
2023-01-21T00:21:29.322Z,9.70
2023-01-21T00:23:55.830Z,9.60
2023-01-21T00:26:22.311Z,9.50
2023-01-21T00:28:48.817Z,9.50
2023-01-21T00:31:15.372Z,9.50
2023-01-21T00:33:41.898Z,9.60
2023-01-21T00:36:08.370Z,9.50
2023-01-21T00:38:34.889Z,9.50
2023-01-21T00:41:01.388Z,9.70
2023-01-21T00:43:27.908Z,9.60
2023-01-21T00:45:54.431Z,9.60
2023-01-21T00:48:20.938Z,9.60
2023-01-21T00:50:47.450Z,9.60
2023-01-21T00:53:13.955Z,9.50
2023-01-21T00:55:40.435Z,9.50
2023-01-21T00:58:07.051Z,9.60
2023-01-21T01:00:33.637Z,9.60
2023-01-21T01:03:00.207Z,9.60
2023-01-21T01:05:26.716Z,9.50
2023-01-21T01:07:53.200Z,9.50
2023-01-21T01:10:19.700Z,9.60
2023-01-21T01:12:46.185Z,9.50
2023-01-21T01:15:12.662Z,9.50
2023-01-21T01:17:39.136Z,9.30
2023-01-21T01:20:05.609Z,9.50
2023-01-21T01:22:32.088Z,9.40
2023-01-21T01:24:58.568Z,9.30
2023-01-21T01:27:25.044Z,9.30
2023-01-21T01:29:51.535Z,9.30
2023-01-21T01:32:18.019Z,9.40
2023-01-21T01:34:44.529Z,9.50
2023-01-21T01:37:11.003Z,9.50
2023-01-21T01:39:37.507Z,9.50
2023-01-21T01:42:03.984Z,9.40
2023-01-21T01:44:30.485Z,9.50
2023-01-21T01:46:56.961Z,9.40
2023-01-21T01:49:23.453Z,9.40
2023-01-21T01:51:49.928Z,9.50
2023-01-21T01:54:16.441Z,9.30
2023-01-21T01:56:42.909Z,9.50
2023-01-21T01:59:09.395Z,9.50
2023-01-21T02:01:35.919Z,9.50
2023-01-21T02:04:02.422Z,9.50
2023-01-21T02:06:28.905Z,9.40
2023-01-21T02:08:55.395Z,9.40
2023-01-21T02:11:21.871Z,9.50
2023-01-21T02:13:48.369Z,9.60
2023-01-21T02:16:14.872Z,9.50
2023-01-21T02:18:41.380Z,9.30
2023-01-21T02:21:07.876Z,9.30
2023-01-21T02:23:34.357Z,9.50
2023-01-21T02:26:00.827Z,9.50
2023-01-21T02:28:27.326Z,9.50
2023-01-21T02:30:53.885Z,9.50
2023-01-21T02:33:20.398Z,9.60
2023-01-21T02:35:46.916Z,9.50
2023-01-21T02:38:13.399Z,9.50
2023-01-21T02:40:39.908Z,9.50
2023-01-21T02:43:06.399Z,9.50
2023-01-21T02:45:32.900Z,9.50
2023-01-21T02:47:59.383Z,9.50
2023-01-21T02:50:25.870Z,9.50
2023-01-21T02:52:52.359Z,9.60
2023-01-21T02:55:19.926Z,9.50
2023-01-21T02:57:50.183Z,9.30
2023-01-21T03:00:16.894Z,9.40
2023-01-21T03:02:43.505Z,9.50
2023-01-21T03:05:10.036Z,9.40
2023-01-21T03:07:36.515Z,9.20
2023-01-21T03:10:03.166Z,9.20
2023-01-21T03:12:29.656Z,9.20
2023-01-21T03:14:56.145Z,9.30
2023-01-21T03:17:22.631Z,9.40
2023-01-21T03:19:49.101Z,9.30
2023-01-21T03:22:15.579Z,9.40
2023-01-21T03:24:42.043Z,9.50
2023-01-21T03:27:08.526Z,9.50
2023-01-21T03:29:35.013Z,9.40
2023-01-21T03:32:01.517Z,9.50
2023-01-21T03:34:28.002Z,9.50
2023-01-21T03:36:54.491Z,9.50
2023-01-21T03:39:20.952Z,9.30
2023-01-21T03:41:47.410Z,9.50
2023-01-21T03:44:13.883Z,9.30
2023-01-21T03:46:40.373Z,9.40
2023-01-21T03:49:06.855Z,9.50
2023-01-21T03:51:33.322Z,9.40
2023-01-21T03:53:59.801Z,9.50
2023-01-21T03:56:26.286Z,9.50
2023-01-21T03:58:52.769Z,9.40
2023-01-21T04:01:19.319Z,9.40
2023-01-21T04:03:45.871Z,9.40
2023-01-21T04:06:12.392Z,9.50
2023-01-21T04:08:38.870Z,9.50
2023-01-21T04:11:05.373Z,9.40
2023-01-21T04:13:31.850Z,9.40
2023-01-21T04:15:58.336Z,9.60
2023-01-21T04:18:24.810Z,9.50
2023-01-21T04:20:51.297Z,9.50
2023-01-21T04:23:17.770Z,9.40
2023-01-21T04:25:44.257Z,9.40
2023-01-21T04:28:10.734Z,9.40
2023-01-21T04:30:37.240Z,9.40
2023-01-21T04:33:03.723Z,9.40
2023-01-21T04:35:30.250Z,9.50
2023-01-21T04:37:56.737Z,9.40
2023-01-21T04:40:23.244Z,9.40
2023-01-21T04:42:49.732Z,9.50
2023-01-21T04:45:16.230Z,9.50
2023-01-21T04:47:42.716Z,9.50
2023-01-21T04:50:09.199Z,9.40
2023-01-21T04:52:35.647Z,9.40
2023-01-21T04:55:02.121Z,9.40
2023-01-21T04:57:28.669Z,9.50
2023-01-21T04:59:55.171Z,9.50
2023-01-21T05:02:21.784Z,9.40
2023-01-21T05:04:48.284Z,9.40
2023-01-21T05:07:21.704Z,9.50
2023-01-21T05:09:48.320Z,9.30
2023-01-21T05:12:14.785Z,9.40
2023-01-21T05:14:41.255Z,9.40
2023-01-21T05:17:07.736Z,9.40
2023-01-21T05:19:34.217Z,9.40
2023-01-21T05:22:00.705Z,9.50
2023-01-21T05:24:27.201Z,9.40
2023-01-21T05:26:53.688Z,9.30
2023-01-21T05:29:20.152Z,9.30
2023-01-21T05:31:46.689Z,9.30
2023-01-21T05:34:13.228Z,9.40
2023-01-21T05:36:39.703Z,9.40
2023-01-21T05:39:06.444Z,9.40
2023-01-21T05:41:32.910Z,9.30
2023-01-21T05:43:59.379Z,9.40
2023-01-21T05:46:25.900Z,9.40
2023-01-21T05:48:52.414Z,9.40
2023-01-21T05:51:18.938Z,9.30
2023-01-21T05:53:45.430Z,9.30
2023-01-21T05:56:11.930Z,9.30
2023-01-21T05:58:38.391Z,9.40
2023-01-21T06:01:04.881Z,9.40
2023-01-21T06:03:31.420Z,9.40
2023-01-21T06:05:57.957Z,9.40
2023-01-21T06:08:24.426Z,9.50
2023-01-21T06:10:50.919Z,9.50
2023-01-21T06:13:17.358Z,9.50
2023-01-21T06:15:43.880Z,9.40
2023-01-21T06:18:10.390Z,9.40
2023-01-21T06:20:36.918Z,9.40
2023-01-21T06:23:03.391Z,9.50
2023-01-21T06:25:29.869Z,9.50
2023-01-21T06:27:56.367Z,9.30
2023-01-21T06:30:22.836Z,9.30
2023-01-21T06:32:50.213Z,9.30
2023-01-21T06:35:16.694Z,9.30
2023-01-21T06:37:43.184Z,9.20
2023-01-21T06:40:09.674Z,9.30
2023-01-21T06:42:36.154Z,9.30
2023-01-21T06:45:02.615Z,9.30
2023-01-21T06:47:29.111Z,9.40
2023-01-21T06:49:55.594Z,9.30
2023-01-21T06:52:22.096Z,9.30
2023-01-21T06:54:48.575Z,9.10
2023-01-21T06:57:15.086Z,9.30
2023-01-21T06:59:41.560Z,9.20
2023-01-21T07:02:08.069Z,9.10
2023-01-21T07:04:34.572Z,9.00
2023-01-21T07:07:01.104Z,9.10
2023-01-21T07:09:27.594Z,9.10
2023-01-21T07:11:54.098Z,9.20
2023-01-21T07:14:20.568Z,9.10
2023-01-21T07:16:47.078Z,9.20
2023-01-21T07:19:13.811Z,9.10
2023-01-21T07:21:40.315Z,9.10
2023-01-21T07:24:06.794Z,9.20
2023-01-21T07:26:33.275Z,9.20
2023-01-21T07:29:02.255Z,9.20
2023-01-21T07:31:28.863Z,9.30
2023-01-21T07:33:55.437Z,9.30
2023-01-21T07:36:21.916Z,9.20
2023-01-21T07:38:48.402Z,9.20
2023-01-21T07:41:14.883Z,9.30
2023-01-21T07:43:41.369Z,9.10
2023-01-21T07:46:07.851Z,9.10
2023-01-21T07:48:34.341Z,9.20
2023-01-21T07:51:00.879Z,9.20
2023-01-21T07:53:27.393Z,9.10
2023-01-21T07:55:53.866Z,9.20
2023-01-21T07:58:20.378Z,9.20
2023-01-21T08:00:50.434Z,9.20
2023-01-21T08:03:16.905Z,9.20
2023-01-21T08:05:43.360Z,9.10
2023-01-21T08:08:09.839Z,9.10
2023-01-21T08:10:36.302Z,9.10
2023-01-21T08:13:02.773Z,9.00
2023-01-21T08:15:29.247Z,9.00
2023-01-21T08:17:55.741Z,9.10
2023-01-21T08:20:22.221Z,9.00
2023-01-21T08:22:48.693Z,9.10
2023-01-21T08:25:15.282Z,9.20
2023-01-21T08:27:41.987Z,9.20
2023-01-21T08:30:08.470Z,9.10
2023-01-21T08:32:34.936Z,9.10
2023-01-21T08:35:01.418Z,9.10
2023-01-21T08:37:27.901Z,9.10
2023-01-21T08:39:54.376Z,9.20
2023-01-21T08:42:20.854Z,9.20
2023-01-21T08:44:47.350Z,9.20
2023-01-21T08:47:13.836Z,9.00
2023-01-21T08:49:40.320Z,9.30
2023-01-21T08:52:07.034Z,9.30
2023-01-21T08:54:33.541Z,9.40
2023-01-21T08:57:00.026Z,9.30
2023-01-21T08:59:26.553Z,9.20
2023-01-21T09:01:56.520Z,9.20
2023-01-21T09:04:23.034Z,9.20
2023-01-21T09:06:49.510Z,9.20
2023-01-21T09:09:16.020Z,9.20
2023-01-21T09:11:42.506Z,9.10
2023-01-21T09:14:09.027Z,9.10
2023-01-21T09:16:35.580Z,8.90
2023-01-21T09:19:02.093Z,8.90
2023-01-21T09:21:28.569Z,9.20
2023-01-21T09:23:56.333Z,9.00
2023-01-21T09:26:22.809Z,9.20
2023-01-21T09:28:49.316Z,9.20
2023-01-21T09:31:15.861Z,9.10
2023-01-21T09:33:42.404Z,9.00
2023-01-21T09:36:08.880Z,8.90
2023-01-21T09:38:35.350Z,9.10
2023-01-21T09:41:01.823Z,9.20
2023-01-21T09:43:32.377Z,9.10
2023-01-21T09:45:58.888Z,9.30
2023-01-21T09:48:25.381Z,9.20
2023-01-21T09:50:51.898Z,9.10
2023-01-21T09:53:18.392Z,9.30
2023-01-21T09:55:44.891Z,9.30
2023-01-21T09:58:11.415Z,9.30
2023-01-21T10:00:37.892Z,9.20
2023-01-21T10:03:04.407Z,9.30
2023-01-21T10:05:32.666Z,9.20
2023-01-21T10:07:59.235Z,9.20
2023-01-21T10:10:25.712Z,9.10
2023-01-21T10:12:52.193Z,9.20
2023-01-21T10:15:18.882Z,9.30
2023-01-21T10:17:45.421Z,9.20
2023-01-21T10:20:11.918Z,9.10
2023-01-21T10:22:44.369Z,9.10
2023-01-21T10:25:10.990Z,9.20
2023-01-21T10:27:37.476Z,9.30
2023-01-21T10:30:05.552Z,9.30
2023-01-21T10:32:33.096Z,9.30
2023-01-21T10:34:59.585Z,9.30
2023-01-21T10:37:26.032Z,9.30
2023-01-21T10:39:52.521Z,9.30
2023-01-21T10:42:19.133Z,9.20
2023-01-21T10:44:50.431Z,9.10
2023-01-21T10:47:16.900Z,9.00
2023-01-21T10:49:43.620Z,9.10
2023-01-21T10:52:10.088Z,9.10
2023-01-21T10:54:36.575Z,9.20
2023-01-21T10:57:03.066Z,9.10
2023-01-21T10:59:31.049Z,9.10
2023-01-21T11:01:59.462Z,9.10
2023-01-21T11:04:25.961Z,9.10
2023-01-21T11:06:52.453Z,9.30
2023-01-21T11:09:18.941Z,9.20
2023-01-21T11:11:45.409Z,9.10
2023-01-21T11:14:11.883Z,9.10
2023-01-21T11:16:38.495Z,9.00
2023-01-21T11:19:04.998Z,9.10
2023-01-21T11:21:31.472Z,9.20
2023-01-21T11:23:57.976Z,9.20
2023-01-21T11:26:24.511Z,9.30
2023-01-21T11:28:51.057Z,9.30
2023-01-21T11:31:17.651Z,9.40
2023-01-21T11:33:44.169Z,9.30
2023-01-21T11:36:10.660Z,9.40
2023-01-21T11:38:37.139Z,9.40
2023-01-21T11:41:03.678Z,9.50
2023-01-21T11:43:30.158Z,9.40
2023-01-21T11:45:56.672Z,9.40
2023-01-21T11:48:23.149Z,9.40
2023-01-21T11:50:49.662Z,9.20
2023-01-21T11:53:16.166Z,9.20
2023-01-21T11:55:42.664Z,9.20
2023-01-21T11:58:09.139Z,9.00
2023-01-21T12:00:35.630Z,9.00
2023-01-21T12:05:46.008Z,9.10
2023-01-21T12:08:12.506Z,9.10
2023-01-21T12:10:39.004Z,8.90
2023-01-21T12:13:05.485Z,8.90
2023-01-21T12:15:31.973Z,9.00
2023-01-21T12:17:58.436Z,9.00
2023-01-21T12:20:24.934Z,9.20
2023-01-21T12:22:51.434Z,9.10
2023-01-21T12:25:17.900Z,9.10
2023-01-21T12:27:44.381Z,9.20
2023-01-21T12:30:10.906Z,9.10
2023-01-21T12:32:37.442Z,9.10
2023-01-21T12:35:03.928Z,9.10
2023-01-21T12:37:30.433Z,9.10
2023-01-21T12:39:56.933Z,9.10
2023-01-21T12:42:23.416Z,9.10
2023-01-21T12:44:49.894Z,8.90
2023-01-21T12:47:16.381Z,9.00
2023-01-21T12:49:42.838Z,9.00
2023-01-21T12:52:09.345Z,9.10
2023-01-21T12:54:35.833Z,9.20
2023-01-21T12:57:02.319Z,9.10
2023-01-21T12:59:30.435Z,9.10
2023-01-21T13:01:57.898Z,9.10
2023-01-21T13:04:24.427Z,9.10
2023-01-21T13:06:54.349Z,8.90
2023-01-21T13:09:21.129Z,9.00
2023-01-21T13:11:47.616Z,9.00
2023-01-21T13:14:14.105Z,9.00
2023-01-21T13:16:40.772Z,9.10
2023-01-21T13:19:07.301Z,8.80
2023-01-21T13:21:33.797Z,9.10
2023-01-21T13:24:00.306Z,9.00
2023-01-21T13:26:26.771Z,9.00
2023-01-21T13:28:53.232Z,9.00
2023-01-21T13:31:19.825Z,9.20
2023-01-21T13:33:46.346Z,9.10
2023-01-21T13:36:12.831Z,9.10
2023-01-21T13:38:39.317Z,8.70
2023-01-21T13:41:05.805Z,8.90
2023-01-21T13:43:32.299Z,9.00
2023-01-21T13:46:02.631Z,9.20
2023-01-21T13:48:29.123Z,9.10
2023-01-21T13:50:55.613Z,9.10
2023-01-21T13:53:22.093Z,9.10
2023-01-21T13:55:48.579Z,9.10
2023-01-21T13:58:15.032Z,9.10
2023-01-21T14:00:41.587Z,9.10
2023-01-21T14:03:08.116Z,9.10
2023-01-21T14:05:34.584Z,9.00
2023-01-21T14:08:01.048Z,8.90
2023-01-21T14:10:27.534Z,8.90
2023-01-21T14:12:54.019Z,9.10
2023-01-21T14:15:20.486Z,9.20
2023-01-21T14:17:46.967Z,9.10
2023-01-21T14:20:13.458Z,9.10
2023-01-21T14:22:39.931Z,9.00
2023-01-21T14:25:06.409Z,9.10
2023-01-21T14:27:32.896Z,9.10
2023-01-21T14:29:59.369Z,9.20
2023-01-21T14:32:25.850Z,9.10
2023-01-21T14:34:52.349Z,9.10
2023-01-21T14:37:18.842Z,9.10
2023-01-21T14:39:45.316Z,9.10
2023-01-21T14:42:11.790Z,8.90
2023-01-21T14:44:38.301Z,8.90
2023-01-21T14:47:08.612Z,8.90
2023-01-21T14:49:35.070Z,9.20
2023-01-21T14:52:01.566Z,9.30
2023-01-21T14:54:28.045Z,9.20
2023-01-21T14:56:54.501Z,9.10
2023-01-21T14:59:20.984Z,9.00
2023-01-21T15:01:47.455Z,9.20
2023-01-21T15:04:13.937Z,9.20
2023-01-21T15:06:40.419Z,9.30
2023-01-21T15:09:06.899Z,9.30
2023-01-21T15:11:33.374Z,9.20
2023-01-21T15:13:59.842Z,9.30
2023-01-21T15:16:26.326Z,9.10
2023-01-21T15:18:52.840Z,9.20
2023-01-21T15:21:19.326Z,9.20
2023-01-21T15:23:45.792Z,9.20
2023-01-21T15:26:12.311Z,9.20
2023-01-21T15:28:39.011Z,9.20
2023-01-21T15:31:05.624Z,9.30
2023-01-21T15:33:32.218Z,9.30
2023-01-21T15:35:58.713Z,9.30
2023-01-21T15:38:25.185Z,9.30
2023-01-21T15:40:51.680Z,9.30
2023-01-21T15:43:18.171Z,9.30
2023-01-21T15:45:44.716Z,9.20
2023-01-21T15:48:11.233Z,9.00
2023-01-21T15:50:37.730Z,9.10
2023-01-21T15:53:04.209Z,9.20
2023-01-21T15:55:30.702Z,9.10
2023-01-21T15:57:57.188Z,9.10
2023-01-21T16:00:23.671Z,9.10
2023-01-21T16:02:50.185Z,9.10
2023-01-21T16:05:16.995Z,9.10
2023-01-21T16:07:43.621Z,9.30
2023-01-21T16:10:10.108Z,9.30
2023-01-21T16:12:36.597Z,9.20
2023-01-21T16:15:03.105Z,9.20
2023-01-21T16:17:29.615Z,9.10
2023-01-21T16:19:56.089Z,9.20
2023-01-21T16:22:26.707Z,9.20
2023-01-21T16:24:53.331Z,9.20
2023-01-21T16:27:19.806Z,9.10
2023-01-21T16:29:46.298Z,9.10
2023-01-21T16:32:12.779Z,9.20
2023-01-21T16:34:44.862Z,9.20
2023-01-21T16:40:01.494Z,9.20
2023-01-21T16:42:27.976Z,9.20
2023-01-21T16:44:54.453Z,9.20
2023-01-21T16:47:20.929Z,9.20
2023-01-21T16:49:47.445Z,9.20
2023-01-21T16:52:13.944Z,9.30
2023-01-21T16:54:40.446Z,9.10
2023-01-21T16:57:06.915Z,9.20
2023-01-21T16:59:33.386Z,9.20
2023-01-21T17:01:59.919Z,9.30
2023-01-21T17:04:26.423Z,9.20
2023-01-21T17:06:52.917Z,9.40
2023-01-21T17:09:19.396Z,9.20
2023-01-21T17:11:45.917Z,9.30
2023-01-21T17:14:12.399Z,9.30
2023-01-21T17:16:38.883Z,9.20
2023-01-21T17:19:05.395Z,9.20
2023-01-21T17:21:31.854Z,9.20
2023-01-21T17:23:58.330Z,9.30
2023-01-21T17:26:24.817Z,9.30
2023-01-21T17:28:51.315Z,9.30
2023-01-21T17:31:17.878Z,9.20
2023-01-21T17:33:44.455Z,9.20
2023-01-21T17:36:10.947Z,9.20
2023-01-21T17:38:37.448Z,9.20
2023-01-21T17:41:03.939Z,9.10
2023-01-21T17:43:30.439Z,9.10
2023-01-21T17:45:56.927Z,9.10
2023-01-21T17:48:23.455Z,9.10
2023-01-21T17:50:49.948Z,9.10
2023-01-21T17:53:16.476Z,9.20
2023-01-21T17:55:42.940Z,9.20
2023-01-21T17:58:09.637Z,9.30
2023-01-21T18:00:36.119Z,9.10
2023-01-21T18:03:02.597Z,9.20
2023-01-21T18:05:29.139Z,9.20
2023-01-21T18:07:55.618Z,9.20
2023-01-21T18:10:22.096Z,9.00
2023-01-21T18:12:48.575Z,9.10
2023-01-21T18:15:15.287Z,9.10
2023-01-21T18:17:41.857Z,9.10
2023-01-21T18:20:08.348Z,9.20
2023-01-21T18:22:34.854Z,9.00
2023-01-21T18:25:01.341Z,9.00
2023-01-21T18:27:27.805Z,9.20
2023-01-21T18:29:54.297Z,9.20
2023-01-21T18:32:20.783Z,9.10
2023-01-21T18:34:47.285Z,9.10
2023-01-21T18:37:13.775Z,9.10
2023-01-21T18:39:40.265Z,9.10
2023-01-21T18:42:06.731Z,9.20
2023-01-21T18:44:33.204Z,9.20
2023-01-21T18:46:59.677Z,9.10
2023-01-21T18:49:26.137Z,9.10
2023-01-21T18:51:52.645Z,9.00
2023-01-21T18:54:20.806Z,9.00
2023-01-21T18:56:47.292Z,9.10
2023-01-21T18:59:13.806Z,9.10
2023-01-21T19:01:40.302Z,9.00
2023-01-21T19:04:08.793Z,9.10
2023-01-21T19:06:35.968Z,9.00
2023-01-21T19:09:02.458Z,9.00
2023-01-21T19:11:28.951Z,9.10
2023-01-21T19:13:55.492Z,9.20
2023-01-21T19:16:22.067Z,9.00
2023-01-21T19:18:48.628Z,9.10
2023-01-21T19:21:15.108Z,9.10
2023-01-21T19:23:41.578Z,9.10
2023-01-21T19:26:08.051Z,9.20
2023-01-21T19:28:34.532Z,9.00
2023-01-21T19:31:01.089Z,9.00
2023-01-21T19:33:27.616Z,9.00
2023-01-21T19:35:54.099Z,9.20
2023-01-21T19:38:20.584Z,9.20
2023-01-21T19:40:47.080Z,9.20
2023-01-21T19:43:13.591Z,9.10
2023-01-21T19:45:40.079Z,9.20
2023-01-21T19:48:06.561Z,9.20
2023-01-21T19:50:33.034Z,9.10
2023-01-21T19:52:59.495Z,9.20
2023-01-21T19:55:26.865Z,9.30
2023-01-21T19:57:53.336Z,9.10
2023-01-21T20:00:19.939Z,9.20
2023-01-21T20:02:46.474Z,9.10
2023-01-21T20:05:12.983Z,9.20
2023-01-21T20:07:39.457Z,9.20
2023-01-21T20:10:05.940Z,9.10
2023-01-21T20:12:32.441Z,9.10
2023-01-21T20:14:58.925Z,9.10
2023-01-21T20:17:25.408Z,9.00
2023-01-21T20:19:51.848Z,9.00
2023-01-21T20:22:18.333Z,9.10
2023-01-21T20:24:44.806Z,9.00
2023-01-21T20:27:11.562Z,9.10
2023-01-21T20:29:44.453Z,9.10
2023-01-21T20:32:11.103Z,9.00
2023-01-21T20:34:37.571Z,9.20
2023-01-21T20:37:04.053Z,9.10
2023-01-21T20:39:30.543Z,9.20
2023-01-21T20:41:57.009Z,9.20
2023-01-21T20:44:23.503Z,9.10
2023-01-21T20:46:49.976Z,9.10
2023-01-21T20:49:16.460Z,9.10
2023-01-21T20:51:42.956Z,9.00
2023-01-21T20:54:09.428Z,9.00
2023-01-21T20:56:35.906Z,9.10
2023-01-21T20:59:02.347Z,9.20
2023-01-21T21:01:28.837Z,9.00
2023-01-21T21:03:55.310Z,8.90
2023-01-21T21:06:26.933Z,9.00
2023-01-21T21:08:53.464Z,9.10
2023-01-21T21:11:19.958Z,8.90
2023-01-21T21:13:46.430Z,8.90
2023-01-21T21:16:12.979Z,9.10
2023-01-21T21:18:39.473Z,9.10
2023-01-21T21:21:05.950Z,9.10
2023-01-21T21:23:32.444Z,9.00
2023-01-21T21:25:59.019Z,9.10
2023-01-21T21:28:25.503Z,9.00
2023-01-21T21:30:52.007Z,9.00
2023-01-21T21:33:18.517Z,8.90
2023-01-21T21:35:45.030Z,8.80
2023-01-21T21:38:11.508Z,9.00
2023-01-21T21:40:38.015Z,8.90
2023-01-21T21:43:04.501Z,9.00
2023-01-21T21:45:31.010Z,9.00
2023-01-21T21:47:57.498Z,9.00
2023-01-21T21:50:24.005Z,9.00
2023-01-21T21:52:50.495Z,9.00
2023-01-21T21:55:17.094Z,9.10
2023-01-21T21:57:43.763Z,9.00
2023-01-21T22:00:10.248Z,8.80
2023-01-21T22:02:39.019Z,9.00
2023-01-21T22:05:05.584Z,8.90
2023-01-21T22:07:32.118Z,8.90
2023-01-21T22:09:58.627Z,8.90
2023-01-21T22:12:25.127Z,8.90
2023-01-21T22:14:51.615Z,8.90
2023-01-21T22:17:18.120Z,8.90
2023-01-21T22:19:44.609Z,8.80
2023-01-21T22:22:11.098Z,9.10
2023-01-21T22:24:37.570Z,9.00
2023-01-21T22:27:08.982Z,8.90
2023-01-21T22:29:35.465Z,9.00
2023-01-21T22:32:02.995Z,9.10
2023-01-21T22:34:33.098Z,9.10
2023-01-21T22:36:59.619Z,9.00
2023-01-21T22:39:29.002Z,9.10
2023-01-21T22:41:55.492Z,9.00
2023-01-21T22:44:21.975Z,9.10
2023-01-21T22:46:48.489Z,8.90
2023-01-21T22:49:14.950Z,9.00
2023-01-21T22:51:41.422Z,9.00
2023-01-21T22:54:07.950Z,8.90
2023-01-21T22:56:51.509Z,9.00
2023-01-21T22:59:18.859Z,8.90
2023-01-21T23:01:51.195Z,8.90
2023-01-21T23:04:17.836Z,9.00
2023-01-21T23:06:44.312Z,9.00
2023-01-21T23:09:11.657Z,8.90
2023-01-21T23:11:38.283Z,9.00
2023-01-21T23:14:04.751Z,8.90
2023-01-21T23:16:31.245Z,8.80
2023-01-21T23:18:57.765Z,8.90
2023-01-21T23:21:24.290Z,8.90
2023-01-21T23:23:50.757Z,8.90
2023-01-21T23:26:17.281Z,8.90
2023-01-21T23:28:43.768Z,9.00
2023-01-21T23:31:10.350Z,8.90
2023-01-21T23:33:38.997Z,9.00
2023-01-21T23:36:05.462Z,8.90
2023-01-21T23:38:31.932Z,9.10
2023-01-21T23:40:58.443Z,9.00
2023-01-21T23:43:25.080Z,9.00
2023-01-21T23:45:51.600Z,9.00
2023-01-21T23:48:18.107Z,9.00
2023-01-21T23:50:44.621Z,8.80
2023-01-21T23:53:11.125Z,8.80
2023-01-21T23:55:37.617Z,8.90
2023-01-21T23:58:04.098Z,8.90
